createdAt,value
2023-08-12T00:03:54.247Z,81.97
2023-08-12T00:10:14.198Z,83.44
2023-08-12T00:16:36.236Z,84.02
2023-08-12T00:22:56.189Z,84.71
2023-08-12T00:29:18.212Z,84.85
2023-08-12T00:35:38.218Z,84.03
2023-08-12T00:41:59.225Z,85.63
2023-08-12T00:48:19.200Z,87.51
2023-08-12T00:54:41.242Z,89.05
2023-08-12T01:01:01.193Z,88.74
2023-08-12T01:07:22.240Z,88.82
2023-08-12T01:13:42.221Z,88.66
2023-08-12T01:20:04.222Z,88.18
2023-08-12T01:26:24.192Z,88.56
2023-08-12T01:32:46.280Z,87.92
2023-08-12T01:39:06.193Z,88.19
2023-08-12T01:45:27.219Z,88.34
2023-08-12T01:51:47.219Z,88.16
2023-08-12T01:58:08.224Z,88.61
2023-08-12T02:04:28.207Z,88.14
2023-08-12T02:10:50.235Z,88.1
2023-08-12T02:17:10.471Z,88.3
2023-08-12T02:23:32.282Z,88.58
2023-08-12T02:29:52.238Z,88.45
2023-08-12T02:36:14.219Z,88.62
2023-08-12T02:42:34.201Z,88.77
2023-08-12T02:48:56.234Z,88.67
2023-08-12T02:55:16.190Z,88.23
2023-08-12T03:01:37.263Z,88.31
2023-08-12T03:07:57.224Z,88.27
2023-08-12T03:14:19.207Z,88.58
2023-08-12T03:20:39.200Z,88.47
2023-08-12T03:27:00.240Z,89.02
2023-08-12T03:33:20.205Z,88.83
2023-08-12T03:39:41.224Z,89.07
2023-08-12T03:46:01.238Z,88.84
2023-08-12T04:08:48.244Z,88.65
2023-08-12T04:15:10.210Z,88.8
2023-08-12T04:21:29.213Z,88.57
2023-08-12T04:27:51.225Z,88.69
2023-08-12T04:34:11.224Z,88.85
2023-08-12T04:40:33.244Z,88.83
2023-08-12T04:46:53.213Z,88.62
2023-08-12T04:53:15.197Z,88.59
2023-08-12T04:59:35.211Z,88.57
2023-08-12T05:05:57.236Z,88.89
2023-08-12T05:12:17.214Z,88.75
2023-08-12T05:18:39.210Z,88.83
2023-08-12T05:24:59.245Z,88.81
2023-08-12T05:31:21.243Z,88.68
2023-08-12T05:37:41.207Z,88.54
2023-08-12T05:44:03.222Z,88.05
2023-08-12T05:50:23.243Z,87.87
2023-08-12T05:56:45.203Z,87.83
2023-08-12T06:03:04.277Z,87.33
2023-08-12T06:09:26.200Z,87.08
2023-08-12T06:15:46.293Z,87.47
2023-08-12T06:22:08.238Z,87.74
2023-08-12T06:28:28.202Z,86.98
2023-08-12T06:34:50.232Z,87.21
2023-08-12T06:41:10.308Z,87.83
2023-08-12T06:47:32.245Z,88.2
2023-08-12T06:53:52.233Z,88.16
2023-08-12T07:00:14.320Z,87.9
2023-08-12T07:06:34.224Z,87.38
2023-08-12T07:12:56.218Z,85.92
2023-08-12T07:19:17.047Z,85.43
2023-08-12T07:25:37.219Z,84.49
2023-08-12T07:31:57.250Z,83.34
2023-08-12T07:38:19.321Z,83.59
2023-08-12T07:44:39.203Z,83.67
2023-08-12T07:51:01.230Z,82.9
2023-08-12T07:57:21.310Z,82.11
2023-08-12T08:03:43.209Z,79.71
2023-08-12T08:10:03.222Z,79.17
2023-08-12T08:16:25.966Z,80.55
2023-08-12T08:22:45.222Z,81.28
2023-08-12T08:29:07.210Z,79.89
2023-08-12T08:35:27.399Z,79.34
2023-08-12T08:41:49.222Z,79.37
2023-08-12T08:48:09.226Z,75.77
2023-08-12T08:54:31.234Z,73.96
2023-08-12T09:00:51.267Z,74.74
2023-08-12T09:07:13.194Z,74.44
2023-08-12T09:13:33.248Z,74.01
2023-08-12T09:19:55.210Z,71.98
2023-08-12T09:43:52.758Z,69.14
2023-08-12T09:50:12.228Z,68.89
2023-08-12T09:56:34.218Z,70.57
2023-08-12T10:02:54.318Z,69.4
2023-08-12T10:09:16.280Z,71.06
2023-08-12T10:15:36.220Z,69.78
2023-08-12T10:21:58.227Z,69.21
2023-08-12T10:28:18.205Z,66.97
2023-08-12T10:34:40.223Z,71.37
2023-08-12T10:41:00.220Z,69.62
2023-08-12T10:47:21.348Z,68.83
2023-08-12T10:53:41.200Z,69.02
2023-08-12T11:00:03.218Z,66.16
2023-08-12T11:06:23.594Z,68.54
2023-08-12T11:12:45.295Z,71.05
2023-08-12T11:19:05.306Z,68.88
2023-08-12T11:25:27.228Z,71.12
2023-08-12T11:31:47.218Z,70.73
2023-08-12T11:38:09.299Z,72.99
2023-08-12T11:44:29.265Z,68.75
2023-08-12T11:50:51.247Z,67.03
2023-08-12T11:57:11.274Z,65.8
2023-08-12T12:03:33.242Z,63.05
2023-08-12T12:09:53.331Z,63.22
2023-08-12T12:16:15.313Z,62.13
2023-08-12T12:22:35.308Z,63.3
2023-08-12T12:28:58.552Z,64.55
2023-08-12T12:35:17.343Z,63.76
2023-08-12T12:41:39.260Z,62.82
2023-08-12T12:47:59.232Z,61.45
2023-08-12T12:54:21.339Z,60.42
2023-08-12T13:00:41.260Z,60.48
2023-08-12T13:07:03.286Z,61.26
2023-08-12T13:13:23.303Z,60.47
2023-08-12T13:19:45.254Z,61.76
2023-08-12T13:26:05.248Z,56.3
2023-08-12T13:32:27.296Z,59.12
2023-08-12T13:38:47.229Z,54.16
2023-08-12T13:45:09.240Z,53.65
2023-08-12T13:51:29.235Z,55.1
2023-08-12T13:57:51.251Z,53.62
2023-08-12T14:04:11.222Z,61.85
2023-08-12T14:10:33.278Z,63.91
2023-08-12T14:16:53.256Z,63.19
2023-08-12T14:23:15.230Z,65.39
2023-08-12T14:29:35.298Z,62.35
2023-08-12T14:35:57.258Z,61.39
2023-08-12T14:42:17.218Z,61.53
2023-08-12T14:58:42.665Z,59.95
2023-08-12T15:05:02.225Z,57.55
2023-08-12T15:11:24.265Z,57.19
2023-08-12T15:17:44.266Z,55.57
2023-08-12T15:24:06.269Z,56.87
2023-08-12T15:30:26.241Z,56.63
2023-08-12T15:36:48.243Z,56.06
2023-08-12T15:43:08.247Z,57.13
2023-08-12T15:49:30.210Z,57.2
2023-08-12T15:55:50.251Z,57.4
2023-08-12T16:02:12.249Z,57.64
2023-08-12T16:08:32.194Z,57.19
2023-08-12T16:14:53.241Z,56.22
2023-08-12T16:21:13.282Z,57.71
2023-08-12T16:27:35.220Z,58.31
2023-08-12T16:33:55.378Z,58.18
2023-08-12T16:40:17.225Z,58.74
2023-08-12T16:46:37.209Z,57.7
2023-08-12T16:52:59.307Z,58.36
2023-08-12T16:59:19.210Z,59
2023-08-12T17:05:41.207Z,58.63
2023-08-12T17:12:01.330Z,58.64
2023-08-12T17:18:23.279Z,57.6
2023-08-12T17:24:43.264Z,56.38
2023-08-12T17:31:05.314Z,56.81
2023-08-12T17:37:25.217Z,58.63
2023-08-12T17:43:47.217Z,58.6
2023-08-12T17:50:07.249Z,58.97
2023-08-12T17:56:29.238Z,59.45
2023-08-12T18:02:49.298Z,60.53
2023-08-12T18:09:11.231Z,59.7
2023-08-12T18:15:31.240Z,59.33
2023-08-12T18:21:53.194Z,61.3
2023-08-12T18:28:13.250Z,60.16
2023-08-12T18:34:35.214Z,60.26
2023-08-12T18:40:55.216Z,62.54
2023-08-12T18:47:17.261Z,63
2023-08-12T18:53:37.194Z,61.74
2023-08-12T18:59:59.521Z,60.32
2023-08-12T19:06:19.262Z,62.08
2023-08-12T19:12:41.224Z,63.38
2023-08-12T19:19:01.242Z,64.19
2023-08-12T19:25:23.515Z,66.32
2023-08-12T19:31:43.247Z,67.05
2023-08-12T19:38:05.205Z,68.71
2023-08-12T19:44:25.236Z,68.65
2023-08-12T19:50:47.207Z,70.26
2023-08-12T19:57:07.197Z,70.94
2023-08-12T20:03:29.491Z,71.72
2023-08-12T20:26:33.729Z,74
2023-08-12T20:32:53.331Z,75.45
2023-08-12T20:39:15.279Z,75.33
2023-08-12T20:45:35.226Z,76.21
2023-08-12T20:51:56.203Z,76.79
2023-08-12T20:58:16.204Z,77.12
2023-08-12T21:04:38.227Z,77.98
2023-08-12T21:10:58.209Z,79.08
2023-08-12T21:17:20.228Z,79.67
2023-08-12T21:23:40.228Z,79.9
2023-08-12T21:30:02.242Z,79.73
2023-08-12T21:36:21.209Z,79.98
2023-08-12T21:42:42.287Z,79.9
2023-08-12T21:49:02.225Z,80.45
2023-08-12T21:55:24.199Z,80.56
2023-08-12T22:20:54.256Z,81.28
2023-08-12T22:27:13.210Z,82.47
2023-08-12T22:33:35.199Z,82.53
2023-08-12T22:39:55.256Z,82.69
2023-08-12T22:46:17.227Z,82.93
2023-08-12T22:52:37.236Z,82.83
2023-08-12T22:58:59.240Z,82.37
2023-08-12T23:05:19.248Z,82.71
2023-08-12T23:11:41.216Z,82.62
2023-08-12T23:18:01.278Z,83.58
2023-08-12T23:24:23.201Z,83.72
2023-08-12T23:30:42.242Z,84.24
2023-08-12T23:37:04.229Z,84.38
2023-08-12T23:43:23.233Z,85.08
2023-08-12T23:49:45.189Z,84.98
2023-08-12T23:56:05.237Z,85.78
